Terminal Aerodrome Forecast
Issued by NWS

Home | Current Version | Previous Version | Text Only | Print | Product List | Glossary On
Versions: 1 2 3 4 5 6 7 8 9 10 11 12
000
FTUS44 KLZK 240539
TAFBPK
TAF
KBPK 240539Z 2406/2506 00000KT P6SM BKN150
      TEMPO 2410/2414 5SM BR
     FM241500 05005KT P6SM SCT040 BKN250
     FM241800 11006KT P6SM SCT050
     FM250000 13003KT P6SM SCT250=

USA.gov is the U.S. government's official web portal to all federal, state and local government web resources and services.